createdAt,value
2022-12-16T00:00:22.923Z,3.68
2022-12-16T00:04:26.639Z,3.73
2022-12-16T00:08:32.321Z,3.69
2022-12-16T00:12:35.415Z,3.60
2022-12-16T00:16:38.858Z,3.63
2022-12-16T00:20:46.153Z,3.58
2022-12-16T00:24:50.710Z,3.68
2022-12-16T00:28:54.137Z,3.71
2022-12-16T00:32:57.922Z,3.71
2022-12-16T00:37:01.331Z,3.68
2022-12-16T00:41:06.128Z,3.71
2022-12-16T00:45:10.131Z,3.72
2022-12-16T00:49:13.179Z,3.79
2022-12-16T00:53:16.704Z,3.70
2022-12-16T00:57:21.465Z,3.78
2022-12-16T01:01:25.130Z,3.79
2022-12-16T01:05:28.349Z,3.76
2022-12-16T01:09:31.702Z,3.77
2022-12-16T01:13:36.436Z,3.79
2022-12-16T01:17:39.917Z,3.75
2022-12-16T01:21:43.051Z,3.72
2022-12-16T01:25:46.417Z,3.76
2022-12-16T01:29:51.728Z,3.77
2022-12-16T01:33:55.586Z,3.80
2022-12-16T01:38:01.310Z,3.81
2022-12-16T01:42:04.834Z,3.87
2022-12-16T01:46:15.450Z,3.92
2022-12-16T01:50:20.530Z,3.95
2022-12-16T01:54:27.942Z,3.98
2022-12-16T01:58:35.042Z,3.96
2022-12-16T02:02:39.976Z,4.02
2022-12-16T02:06:43.139Z,4.03
2022-12-16T02:11:01.857Z,4.04
2022-12-16T02:15:25.343Z,4.06
2022-12-16T02:20:05.337Z,4.04
2022-12-16T02:24:52.950Z,4.06
2022-12-16T02:29:22.786Z,4.06
2022-12-16T02:33:47.680Z,4.07
2022-12-16T02:37:58.501Z,4.01
2022-12-16T02:42:08.623Z,3.90
2022-12-16T02:46:12.412Z,3.98
2022-12-16T02:50:23.617Z,4.00
2022-12-16T02:54:28.412Z,3.94
2022-12-16T02:58:41.000Z,3.90
2022-12-16T03:02:49.796Z,3.94
2022-12-16T03:06:56.818Z,3.88
2022-12-16T03:11:04.167Z,3.90
2022-12-16T03:15:09.487Z,3.89
2022-12-16T03:19:14.030Z,3.90
2022-12-16T03:23:23.387Z,3.93
2022-12-16T03:27:30.357Z,3.89
2022-12-16T03:31:42.200Z,3.96
2022-12-16T03:35:51.929Z,4.02
2022-12-16T03:40:02.605Z,4.00
2022-12-16T03:44:06.231Z,4.03
2022-12-16T03:48:11.328Z,3.94
2022-12-16T03:52:14.419Z,3.93
2022-12-16T03:56:19.066Z,4.10
2022-12-16T04:00:23.178Z,4.11
2022-12-16T04:04:26.749Z,4.15
2022-12-16T04:08:30.297Z,4.16
2022-12-16T04:12:52.393Z,4.18
2022-12-16T04:17:13.567Z,4.18
2022-12-16T04:21:33.795Z,4.16
2022-12-16T04:25:39.467Z,4.16
2022-12-16T04:29:57.788Z,4.15
2022-12-16T04:34:33.272Z,4.07
2022-12-16T04:38:53.648Z,4.02
2022-12-16T04:43:14.465Z,4.02
2022-12-16T04:47:36.684Z,4.05
2022-12-16T04:51:57.150Z,4.01
2022-12-16T04:56:17.875Z,4.05
2022-12-16T05:00:39.261Z,4.11
2022-12-16T05:05:01.399Z,4.16
2022-12-16T05:09:22.819Z,4.18
2022-12-16T05:13:43.270Z,4.20
2022-12-16T05:18:03.920Z,4.21
2022-12-16T05:22:25.790Z,4.22
2022-12-16T05:26:46.701Z,4.22
2022-12-16T05:31:07.007Z,4.22
2022-12-16T05:35:33.147Z,4.23
2022-12-16T05:39:55.502Z,4.23
2022-12-16T05:44:16.006Z,4.22
2022-12-16T05:48:36.509Z,4.21
2022-12-16T05:52:57.951Z,4.20
2022-12-16T05:57:20.048Z,4.20
2022-12-16T06:01:40.693Z,4.20
2022-12-16T06:06:35.216Z,4.21
2022-12-16T06:10:56.415Z,4.19
2022-12-16T06:15:18.587Z,4.18
2022-12-16T06:19:39.054Z,4.17
2022-12-16T06:23:59.236Z,4.17
2022-12-16T06:28:20.394Z,4.16
2022-12-16T06:32:42.523Z,4.17
2022-12-16T06:37:03.623Z,4.16
2022-12-16T06:41:24.623Z,4.16
2022-12-16T06:45:45.483Z,4.17
2022-12-16T06:50:07.715Z,4.17
2022-12-16T06:54:28.012Z,4.18
2022-12-16T06:58:49.061Z,4.21
2022-12-16T07:03:09.290Z,4.21
2022-12-16T07:07:33.379Z,4.23
2022-12-16T07:11:54.169Z,4.24
2022-12-16T07:16:14.679Z,4.27
2022-12-16T07:20:35.370Z,4.29
2022-12-16T07:24:57.119Z,4.33
2022-12-16T07:29:18.183Z,4.37
2022-12-16T07:33:38.575Z,4.40
2022-12-16T07:37:59.069Z,4.42
2022-12-16T07:42:20.760Z,4.47
2022-12-16T07:46:41.582Z,4.48
2022-12-16T07:51:01.900Z,4.51
2022-12-16T07:55:23.268Z,4.53
2022-12-16T07:59:45.166Z,4.56
2022-12-16T08:04:06.130Z,4.57
2022-12-16T08:08:35.047Z,4.59
2022-12-16T08:12:56.651Z,4.62
2022-12-16T08:17:19.211Z,4.65
2022-12-16T08:21:40.237Z,4.69
2022-12-16T08:26:01.129Z,4.75
2022-12-16T08:30:22.169Z,4.81
2022-12-16T08:34:43.808Z,4.87
2022-12-16T08:39:04.619Z,4.91
2022-12-16T08:43:25.449Z,4.95
2022-12-16T08:47:46.338Z,5.00
2022-12-16T08:52:08.679Z,5.03
2022-12-16T08:56:29.467Z,5.04
2022-12-16T09:00:52.695Z,5.06
2022-12-16T09:05:12.801Z,5.08
2022-12-16T09:09:34.912Z,5.12
2022-12-16T09:13:55.456Z,5.16
2022-12-16T09:18:16.283Z,5.22
2022-12-16T09:22:37.031Z,5.28
2022-12-16T09:26:59.314Z,5.35
2022-12-16T09:31:20.472Z,5.43
2022-12-16T09:35:41.063Z,5.47
2022-12-16T09:40:01.950Z,5.50
2022-12-16T09:44:34.828Z,5.50
2022-12-16T09:49:05.035Z,5.51
2022-12-16T09:53:31.116Z,5.51
2022-12-16T09:57:54.382Z,5.50
2022-12-16T10:02:18.828Z,5.46
2022-12-16T10:06:52.093Z,5.39
2022-12-16T10:11:15.507Z,5.38
2022-12-16T10:15:49.216Z,5.32
2022-12-16T10:20:19.422Z,5.31
2022-12-16T10:24:51.128Z,5.33
2022-12-16T10:29:21.965Z,5.35
2022-12-16T10:33:53.075Z,5.38
2022-12-16T10:38:15.745Z,5.41
2022-12-16T10:42:43.260Z,5.39
2022-12-16T10:47:04.229Z,5.36
2022-12-16T10:51:31.521Z,5.35
2022-12-16T10:56:06.326Z,5.34
2022-12-16T11:00:29.314Z,5.33
2022-12-16T11:04:54.269Z,5.33
2022-12-16T11:09:34.118Z,5.36
2022-12-16T11:13:56.763Z,5.40
2022-12-16T11:18:22.310Z,5.45
2022-12-16T11:22:43.018Z,5.49
2022-12-16T11:27:12.428Z,5.55
2022-12-16T11:31:35.849Z,5.63
2022-12-16T11:36:00.254Z,5.71
2022-12-16T11:40:27.181Z,5.79
2022-12-16T11:44:52.393Z,5.82
2022-12-16T11:49:24.689Z,5.98
2022-12-16T11:54:04.844Z,6.04
2022-12-16T11:58:36.612Z,6.09
2022-12-16T12:03:03.771Z,6.19
2022-12-16T12:07:44.827Z,6.26
2022-12-16T12:12:12.959Z,6.26
2022-12-16T12:16:39.046Z,6.40
2022-12-16T12:21:09.190Z,6.45
2022-12-16T12:25:41.296Z,6.47
2022-12-16T12:30:16.591Z,6.40
2022-12-16T12:34:47.863Z,6.41
2022-12-16T12:39:21.562Z,6.35
2022-12-16T12:44:14.675Z,6.34
2022-12-16T12:48:41.471Z,6.33
2022-12-16T12:53:21.032Z,6.30
2022-12-16T12:57:44.669Z,6.31
2022-12-16T13:02:10.075Z,6.34
2022-12-16T13:06:34.155Z,6.33
2022-12-16T13:10:56.556Z,6.31
2022-12-16T13:15:24.388Z,6.29
2022-12-16T13:20:04.270Z,6.21
2022-12-16T13:24:39.739Z,6.13
2022-12-16T13:29:11.992Z,6.04
2022-12-16T13:33:51.265Z,5.98
2022-12-16T13:38:15.449Z,5.92
2022-12-16T13:43:12.942Z,5.84
2022-12-16T13:47:49.081Z,5.76
2022-12-16T13:52:20.151Z,5.71
2022-12-16T13:56:48.692Z,5.63
2022-12-16T14:01:23.645Z,5.59
2022-12-16T14:05:47.891Z,5.52
2022-12-16T14:10:17.485Z,5.51
2022-12-16T14:14:44.718Z,5.48
2022-12-16T14:19:20.412Z,5.43
2022-12-16T14:23:58.849Z,5.39
2022-12-16T14:28:20.275Z,5.35
2022-12-16T14:32:46.946Z,5.33
2022-12-16T14:37:09.706Z,4.92
2022-12-16T14:41:31.402Z,5.27
2022-12-16T14:45:54.247Z,5.23
2022-12-16T14:50:16.728Z,5.14
2022-12-16T14:54:41.148Z,5.12
2022-12-16T14:59:13.325Z,5.09
2022-12-16T15:03:39.952Z,5.02
2022-12-16T15:08:03.183Z,5.06
2022-12-16T15:12:26.031Z,5.02
2022-12-16T15:16:57.026Z,5.03
2022-12-16T15:21:18.229Z,4.94
2022-12-16T15:25:43.230Z,4.93
2022-12-16T15:30:12.345Z,4.89
2022-12-16T15:34:40.992Z,4.87
2022-12-16T15:39:02.160Z,4.84
2022-12-16T15:43:24.026Z,4.82
2022-12-16T15:47:46.853Z,4.81
2022-12-16T15:52:08.552Z,4.84
2022-12-16T15:56:36.492Z,4.75
2022-12-16T16:00:58.769Z,4.78
2022-12-16T16:05:19.831Z,4.76
2022-12-16T16:09:41.793Z,4.68
2022-12-16T16:14:08.271Z,4.73
2022-12-16T16:18:32.800Z,4.72
2022-12-16T16:22:53.570Z,4.70
2022-12-16T16:27:15.713Z,4.70
2022-12-16T16:31:36.439Z,4.69
2022-12-16T16:35:58.911Z,4.70
2022-12-16T16:40:20.674Z,4.63
2022-12-16T16:44:40.601Z,4.67
2022-12-16T16:49:02.078Z,4.65
2022-12-16T16:53:23.807Z,4.58
2022-12-16T16:57:45.750Z,4.50
2022-12-16T17:02:06.255Z,4.43
2022-12-16T17:06:27.158Z,4.34
2022-12-16T17:10:49.226Z,4.28
2022-12-16T17:15:09.604Z,4.23
2022-12-16T17:19:29.871Z,4.10
2022-12-16T17:23:50.935Z,4.10
2022-12-16T17:28:09.326Z,4.13
2022-12-16T17:32:30.767Z,4.08
2022-12-16T17:36:51.468Z,4.07
2022-12-16T17:41:12.587Z,4.03
2022-12-16T17:45:34.400Z,4.00
2022-12-16T17:49:55.109Z,3.97
2022-12-16T17:54:23.915Z,3.94
2022-12-16T17:58:50.325Z,3.94
2022-12-16T18:03:12.570Z,3.95
2022-12-16T18:07:33.126Z,3.93
2022-12-16T18:11:54.104Z,3.93
2022-12-16T18:16:15.116Z,3.93
2022-12-16T18:20:37.327Z,3.94
2022-12-16T18:24:57.804Z,3.92
2022-12-16T18:29:18.337Z,3.90
2022-12-16T18:33:38.442Z,3.90
2022-12-16T18:38:00.792Z,3.89
2022-12-16T18:42:21.501Z,3.87
2022-12-16T18:46:44.706Z,3.86
2022-12-16T18:51:12.233Z,3.87
2022-12-16T18:55:34.525Z,3.85
2022-12-16T18:59:56.310Z,3.85
2022-12-16T19:04:17.321Z,3.86
2022-12-16T19:08:38.813Z,3.82
2022-12-16T19:13:00.597Z,3.80
2022-12-16T19:17:21.884Z,3.77
2022-12-16T19:21:46.904Z,3.75
2022-12-16T19:26:16.090Z,3.75
2022-12-16T19:30:44.632Z,3.73
2022-12-16T19:35:18.326Z,3.70
2022-12-16T19:39:40.429Z,3.66
2022-12-16T19:48:45.855Z,3.62
2022-12-16T19:53:06.897Z,3.59
2022-12-16T19:57:28.179Z,3.58
2022-12-16T20:01:49.159Z,3.55
2022-12-16T20:06:20.283Z,3.53
2022-12-16T20:10:41.692Z,3.49
2022-12-16T20:15:01.942Z,3.47
2022-12-16T20:19:22.790Z,3.46
2022-12-16T20:23:44.848Z,3.45
2022-12-16T20:28:05.738Z,3.43
2022-12-16T20:32:26.754Z,3.42
2022-12-16T20:36:46.877Z,3.41
2022-12-16T20:41:16.505Z,3.42
2022-12-16T20:45:38.547Z,3.40
2022-12-16T20:49:59.545Z,3.39
2022-12-16T20:54:20.432Z,3.38
2022-12-16T20:58:42.764Z,3.33
2022-12-16T21:03:03.316Z,3.31
2022-12-16T21:07:38.853Z,3.25
2022-12-16T21:11:59.446Z,3.22
2022-12-16T21:16:23.852Z,3.22
2022-12-16T21:20:44.207Z,3.20
2022-12-16T21:25:04.907Z,3.18
2022-12-16T21:29:25.796Z,3.16
2022-12-16T21:33:48.203Z,3.15
2022-12-16T21:38:10.695Z,3.15
2022-12-16T21:42:35.077Z,3.12
2022-12-16T21:47:00.731Z,3.09
2022-12-16T21:51:22.918Z,3.07
2022-12-16T21:55:52.990Z,3.04
2022-12-16T22:00:15.833Z,3.04
2022-12-16T22:04:40.082Z,3.04
2022-12-16T22:09:06.323Z,3.02
2022-12-16T22:13:27.035Z,3.00
2022-12-16T22:18:01.950Z,3.00
2022-12-16T22:22:22.613Z,3.00
2022-12-16T22:26:45.081Z,3.01
2022-12-16T22:31:15.810Z,3.00
2022-12-16T22:35:36.942Z,3.02
2022-12-16T22:39:57.290Z,3.02
2022-12-16T22:44:21.610Z,3.00
2022-12-16T22:48:42.033Z,3.00
2022-12-16T22:53:02.757Z,2.98
2022-12-16T22:57:23.646Z,2.98
2022-12-16T23:01:46.061Z,2.96
2022-12-16T23:06:06.368Z,2.93
2022-12-16T23:10:27.649Z,2.94
2022-12-16T23:14:48.344Z,2.92
2022-12-16T23:19:11.312Z,2.93
2022-12-16T23:23:31.954Z,2.95
2022-12-16T23:27:52.545Z,2.96
2022-12-16T23:32:14.380Z,2.94
2022-12-16T23:36:36.051Z,2.95
2022-12-16T23:40:56.634Z,2.95
2022-12-16T23:45:17.454Z,2.94
2022-12-16T23:49:38.108Z,2.88
2022-12-16T23:54:05.317Z,2.94
2022-12-16T23:58:25.984Z,2.94
